KSVH/SVH METAR and TAF weather

Enter ICAO airport designator
Station Type Date Time Source
KSVH METAR 2021/04/18 02:55 UTC NOAA

KSVH 180255Z AUTO 36004KT 10SM OVC110 14/05 A2986 RMK AO2 T01370049


Station Type Date Time Source
KSVH Decoded METAR 2021/04/18 02:55 UTC NOAA

Statesville, Statesville Municipal Airport, NC, United States (KSVH) 35-45-55N 080-57-24W
Apr 17, 2021 - 10:55 PM EDT / 2021.04.18 0255 UTC
Wind: from the N (360 degrees) at 5 MPH (4 KT):0
Visibility: 10 mile(s):0
Sky conditions: overcast
Temperature: 56.7 F (13.7 C)
Dew Point: 40.8 F (4.9 C)
Relative Humidity: 55%
Pressure (altimeter): 29.86 in. Hg (1011 hPa)
ob: KSVH 180255Z AUTO 36004KT 10SM OVC110 14/05 A2986 RMK AO2 T01370049
cycle: 3

Station Type Date Time Source
KSVH TAF UTC NOAA

Error!

Example: see airport list